Terminal Aerodrome Forecast
Issued by NWS Omaha/Valley, NE

Home | Current Version | Previous Version | Text Only | Print | Product List | Glossary On
Versions: 1 2 3 4 5 6 7 8 9 10 11 12 13 14 15 16 17 18 19 20 21 22 23 24 25 26 27 28 29 30 31 32 33 34 35 36 37 38 39 40 41 42 43 44 45 46
875
FTUS43 KOAX 010826 AAB
TAFOMA
TAF AMD
KOMA 010826Z 0108/0206 04012KT P6SM -DZ OVC008
      TEMPO 0109/0112 5SM -RA BR
     FM011200 03012KT 5SM -RA BR OVC007
     FM011600 36015KT 4SM -DZ BR OVC008
     FM011900 36013KT 4SM -RA OVC015
     FM012200 01008KT P6SM OVC030
     FM020100 36005KT P6SM OVC050=

USA.gov is the U.S. government's official web portal to all federal, state and local government web resources and services.